createdAt,value
2018-01-17T00:00:52.992Z,0.00
2018-01-17T00:01:52.979Z,0.00
2018-01-17T00:02:52.960Z,0.00
2018-01-17T00:03:52.956Z,0.00
2018-01-17T00:04:52.937Z,0.00
2018-01-17T00:05:52.928Z,0.00
2018-01-17T00:06:52.924Z,0.00
2018-01-17T00:07:52.902Z,0.00
2018-01-17T00:08:52.892Z,0.00
2018-01-17T00:09:52.874Z,0.00
2018-01-17T00:10:52.863Z,0.00
2018-01-17T00:11:52.849Z,0.00
2018-01-17T00:12:52.838Z,0.00
2018-01-17T00:13:52.826Z,0.00
2018-01-17T00:14:52.865Z,0.00
2018-01-17T00:15:52.804Z,0.00
2018-01-17T00:16:52.787Z,0.00
2018-01-17T00:17:52.777Z,0.00
2018-01-17T00:18:52.762Z,0.00
2018-01-17T00:19:52.746Z,0.00
2018-01-17T00:20:52.734Z,0.00
2018-01-17T00:21:52.720Z,0.00
2018-01-17T00:22:52.710Z,0.00
2018-01-17T00:23:52.696Z,0.00
2018-01-17T00:24:52.680Z,0.00
2018-01-17T00:25:52.671Z,0.00
2018-01-17T00:26:52.654Z,0.00
2018-01-17T00:27:52.642Z,0.00
2018-01-17T00:28:52.653Z,0.00
2018-01-17T00:29:52.616Z,0.00
2018-01-17T00:30:52.606Z,0.00
2018-01-17T00:31:52.592Z,0.00
2018-01-17T00:32:52.580Z,0.00
2018-01-17T00:33:52.567Z,0.00
2018-01-17T00:34:52.550Z,0.00
2018-01-17T00:35:52.546Z,0.00
2018-01-17T00:36:52.528Z,0.00
2018-01-17T00:37:52.522Z,0.00
2018-01-17T00:38:52.513Z,0.00
2018-01-17T00:39:52.490Z,0.00
2018-01-17T00:40:52.483Z,0.00
2018-01-17T00:41:52.464Z,0.00
2018-01-17T00:42:52.452Z,0.00
2018-01-17T00:43:52.439Z,0.00
2018-01-17T00:44:52.424Z,0.00
2018-01-17T00:45:52.418Z,0.00
2018-01-17T00:46:52.401Z,0.00
2018-01-17T00:47:52.390Z,0.00
2018-01-17T00:48:52.369Z,0.00
2018-01-17T00:49:52.362Z,0.00
2018-01-17T00:50:52.348Z,0.00
2018-01-17T00:51:52.337Z,0.00
2018-01-17T00:52:52.327Z,0.00
2018-01-17T00:53:52.316Z,0.00
2018-01-17T00:54:52.294Z,0.00
2018-01-17T00:55:52.282Z,0.00
2018-01-17T00:56:52.265Z,0.00
2018-01-17T00:57:52.257Z,0.00
2018-01-17T00:58:52.241Z,0.00
2018-01-17T00:59:52.229Z,0.00
2018-01-17T01:00:52.216Z,0.00
2018-01-17T01:01:52.203Z,0.00
2018-01-17T01:02:52.191Z,0.00
2018-01-17T01:03:52.188Z,0.00
2018-01-17T01:04:52.187Z,0.00
2018-01-17T01:05:52.149Z,0.00
2018-01-17T01:06:52.139Z,0.00
2018-01-17T01:07:52.128Z,0.00
2018-01-17T01:08:52.113Z,0.00
2018-01-17T01:09:52.108Z,0.00
2018-01-17T01:10:52.088Z,0.00
2018-01-17T01:11:52.074Z,0.00
2018-01-17T01:12:52.062Z,0.00
2018-01-17T01:13:52.047Z,0.00
2018-01-17T01:14:52.034Z,0.00
2018-01-17T01:15:52.022Z,0.00
2018-01-17T01:16:52.010Z,0.00
2018-01-17T01:17:52.000Z,0.00
2018-01-17T01:18:51.983Z,0.00
2018-01-17T01:19:51.991Z,0.00
2018-01-17T01:20:51.959Z,0.00
2018-01-17T01:21:51.948Z,0.00
2018-01-17T01:22:51.936Z,0.00
2018-01-17T01:23:51.926Z,0.00
2018-01-17T01:24:51.933Z,0.00
2018-01-17T01:25:51.915Z,0.00
2018-01-17T01:26:51.889Z,0.00
2018-01-17T01:27:51.872Z,0.00
2018-01-17T01:28:51.858Z,0.00
2018-01-17T01:29:51.844Z,0.00
2018-01-17T01:30:51.868Z,0.00
2018-01-17T01:31:51.821Z,0.00
2018-01-17T01:32:51.807Z,0.00
2018-01-17T01:33:51.792Z,0.00
2018-01-17T01:34:51.780Z,0.00
2018-01-17T01:35:51.775Z,0.00
2018-01-17T01:36:51.754Z,0.00
2018-01-17T01:37:51.748Z,0.00
2018-01-17T01:38:51.731Z,0.00
2018-01-17T01:39:51.719Z,0.00
2018-01-17T01:40:51.705Z,0.00
2018-01-17T01:41:51.694Z,0.00
2018-01-17T01:42:51.681Z,0.00
2018-01-17T01:43:51.665Z,0.00
2018-01-17T01:44:51.654Z,0.00
2018-01-17T01:45:51.642Z,0.00
2018-01-17T01:46:51.630Z,0.00
2018-01-17T01:47:51.623Z,0.00
2018-01-17T01:48:51.605Z,0.00
2018-01-17T01:49:51.600Z,0.00
2018-01-17T01:50:51.576Z,0.00
2018-01-17T01:51:51.568Z,0.00
2018-01-17T01:52:51.555Z,0.00
2018-01-17T01:53:51.544Z,0.00
2018-01-17T01:54:51.530Z,0.00
2018-01-17T01:55:51.521Z,0.00
2018-01-17T01:56:51.513Z,0.00
2018-01-17T01:57:51.496Z,0.00
2018-01-17T01:58:51.481Z,0.00
2018-01-17T01:59:51.469Z,0.00
2018-01-17T02:00:51.456Z,0.00
2018-01-17T02:01:51.445Z,0.00
2018-01-17T02:02:51.433Z,0.00
2018-01-17T02:03:51.413Z,0.00
2018-01-17T02:04:51.404Z,0.00
2018-01-17T02:05:51.429Z,0.00
2018-01-17T02:06:51.395Z,0.00
2018-01-17T02:07:51.366Z,0.00
2018-01-17T02:08:51.373Z,0.00
2018-01-17T02:09:51.343Z,0.00
2018-01-17T02:10:51.330Z,0.00
2018-01-17T02:11:51.315Z,0.00
2018-01-17T02:12:51.304Z,0.00
2018-01-17T02:13:51.302Z,0.00
2018-01-17T02:14:51.286Z,0.00
2018-01-17T02:15:51.266Z,0.00
2018-01-17T02:16:51.255Z,0.00
2018-01-17T02:17:51.241Z,0.00
2018-01-17T02:18:51.227Z,0.00
2018-01-17T02:19:51.218Z,0.00
2018-01-17T02:20:51.202Z,0.00
2018-01-17T02:21:51.188Z,0.00
2018-01-17T02:22:51.176Z,0.00
2018-01-17T02:23:51.164Z,0.00
2018-01-17T02:24:51.164Z,0.00
2018-01-17T02:25:51.141Z,0.00
2018-01-17T02:26:51.128Z,0.00
2018-01-17T02:27:51.117Z,0.00
2018-01-17T02:28:51.097Z,0.00
2018-01-17T02:29:51.091Z,0.00
2018-01-17T02:30:51.074Z,0.00
2018-01-17T02:31:51.060Z,0.00
2018-01-17T02:32:51.045Z,0.00
2018-01-17T02:33:51.042Z,0.00
2018-01-17T02:34:51.024Z,0.00
2018-01-17T02:35:51.011Z,0.00
2018-01-17T02:36:51.001Z,0.00
2018-01-17T02:37:50.987Z,0.00
2018-01-17T02:38:50.971Z,0.00
2018-01-17T02:39:50.963Z,0.00
2018-01-17T02:40:50.944Z,0.00
2018-01-17T02:41:50.939Z,0.00
2018-01-17T02:42:50.922Z,0.00
2018-01-17T02:43:50.909Z,0.00
2018-01-17T02:44:50.892Z,0.00
2018-01-17T02:45:50.883Z,0.00
2018-01-17T02:46:50.880Z,0.00
2018-01-17T02:47:50.858Z,0.00
2018-01-17T02:48:50.846Z,0.00
2018-01-17T02:49:50.832Z,0.00
2018-01-17T02:50:50.819Z,0.00
2018-01-17T02:51:50.808Z,0.00
2018-01-17T02:52:50.791Z,0.00
2018-01-17T02:53:50.781Z,0.00
2018-01-17T02:54:50.769Z,0.00
2018-01-17T02:55:50.758Z,0.00
2018-01-17T02:56:50.742Z,0.00
2018-01-17T02:57:50.736Z,0.00
2018-01-17T02:58:50.717Z,0.00
2018-01-17T02:59:50.703Z,0.00
2018-01-17T03:00:50.689Z,0.00
2018-01-17T03:01:50.677Z,0.00
2018-01-17T03:02:50.667Z,0.00
2018-01-17T03:03:50.653Z,0.00
2018-01-17T03:04:50.637Z,0.00
2018-01-17T03:05:50.628Z,0.00
2018-01-17T03:06:50.613Z,0.00
2018-01-17T03:07:50.601Z,0.00
2018-01-17T03:08:50.586Z,0.00
2018-01-17T03:09:50.577Z,0.00
2018-01-17T03:10:50.569Z,0.00
2018-01-17T03:11:50.550Z,0.00
2018-01-17T03:12:50.536Z,0.00
2018-01-17T03:13:50.523Z,0.00
2018-01-17T03:14:50.520Z,0.00
2018-01-17T03:15:50.499Z,0.00
2018-01-17T03:16:50.485Z,0.00
2018-01-17T03:17:50.470Z,0.00
2018-01-17T03:18:50.459Z,0.00
2018-01-17T03:19:50.448Z,0.00
2018-01-17T03:20:50.437Z,0.00
2018-01-17T03:21:50.416Z,0.00
2018-01-17T03:22:50.417Z,0.00
2018-01-17T03:23:50.393Z,0.00
2018-01-17T03:24:50.383Z,0.00
2018-01-17T03:25:50.367Z,0.00
2018-01-17T03:26:50.355Z,0.00
2018-01-17T03:27:50.377Z,0.00
2018-01-17T03:28:50.334Z,0.00
2018-01-17T03:29:50.313Z,0.00
2018-01-17T03:30:50.301Z,0.00
2018-01-17T03:31:50.294Z,0.00
2018-01-17T03:32:50.280Z,0.00
2018-01-17T03:33:50.268Z,0.00
2018-01-17T03:34:50.251Z,0.00
2018-01-17T03:35:50.234Z,0.00
2018-01-17T03:36:50.223Z,0.00
2018-01-17T03:37:50.218Z,0.00
2018-01-17T03:38:50.200Z,0.00
2018-01-17T03:39:50.187Z,0.00
2018-01-17T03:40:50.173Z,0.00
2018-01-17T03:41:50.158Z,0.00
2018-01-17T03:42:50.150Z,0.00
2018-01-17T03:43:50.135Z,0.00
2018-01-17T03:44:50.119Z,0.00
2018-01-17T03:45:50.108Z,0.00
2018-01-17T03:46:50.097Z,0.00
2018-01-17T03:47:50.084Z,0.00
2018-01-17T03:48:50.064Z,0.00
2018-01-17T03:49:50.055Z,0.00
2018-01-17T03:50:50.044Z,0.00
2018-01-17T03:51:50.028Z,0.00
2018-01-17T03:52:50.012Z,0.00
2018-01-17T03:53:50.003Z,0.00
2018-01-17T03:54:49.993Z,0.00
2018-01-17T03:55:49.981Z,0.00
2018-01-17T03:56:49.958Z,0.00
2018-01-17T03:57:49.953Z,0.00
2018-01-17T03:58:49.933Z,0.00
2018-01-17T03:59:49.933Z,0.00
2018-01-17T04:00:49.916Z,0.00
2018-01-17T04:01:49.896Z,0.00
2018-01-17T04:02:49.898Z,0.00
2018-01-17T04:03:49.874Z,0.00
2018-01-17T04:04:49.861Z,0.00
2018-01-17T04:05:49.847Z,0.00
2018-01-17T04:06:49.832Z,0.00
2018-01-17T04:07:49.820Z,0.00
2018-01-17T04:08:49.809Z,0.00
2018-01-17T04:09:49.791Z,0.00
2018-01-17T04:10:49.786Z,0.00
2018-01-17T04:11:49.772Z,0.00
2018-01-17T04:12:49.756Z,0.00
2018-01-17T04:13:49.741Z,0.00
2018-01-17T04:14:49.727Z,0.00
2018-01-17T04:15:49.715Z,0.00
2018-01-17T04:16:49.702Z,0.00
2018-01-17T04:17:49.687Z,0.00
2018-01-17T04:18:49.678Z,0.00
2018-01-17T04:19:49.664Z,0.00
2018-01-17T04:20:49.651Z,0.00
2018-01-17T04:21:49.634Z,0.00
2018-01-17T04:22:49.623Z,0.00
2018-01-17T04:23:49.606Z,0.00
2018-01-17T04:24:49.598Z,0.00
2018-01-17T04:25:49.597Z,0.00
2018-01-17T04:26:49.570Z,0.00
2018-01-17T04:27:49.559Z,0.00
2018-01-17T04:28:49.547Z,0.00
2018-01-17T04:29:49.534Z,0.00
2018-01-17T04:30:49.518Z,0.00
2018-01-17T04:31:49.504Z,0.00
2018-01-17T04:32:49.493Z,0.00
2018-01-17T04:33:49.481Z,0.00
2018-01-17T04:34:49.469Z,0.00
2018-01-17T04:35:49.455Z,0.00
2018-01-17T04:36:49.440Z,0.00
2018-01-17T04:37:49.425Z,0.00
2018-01-17T04:38:49.415Z,0.00
2018-01-17T04:39:49.402Z,0.00
2018-01-17T04:40:49.389Z,0.00
2018-01-17T04:41:49.377Z,0.00
2018-01-17T04:42:49.375Z,0.00
2018-01-17T04:43:49.372Z,0.00
2018-01-17T04:44:49.334Z,0.00
2018-01-17T04:45:49.326Z,0.00
2018-01-17T04:46:49.308Z,0.00
2018-01-17T04:47:49.302Z,0.00
2018-01-17T04:48:49.283Z,0.00
2018-01-17T04:49:49.269Z,0.00
2018-01-17T04:50:49.253Z,0.00
2018-01-17T04:51:49.241Z,0.00
2018-01-17T04:52:49.231Z,0.00
2018-01-17T04:53:49.213Z,0.00
2018-01-17T04:54:49.209Z,0.00
2018-01-17T04:55:49.189Z,0.00
2018-01-17T04:56:49.175Z,0.00
2018-01-17T04:57:49.166Z,0.00
2018-01-17T04:59:24.794Z,0.00
2018-01-17T04:59:49.139Z,0.00
2018-01-17T05:00:49.119Z,0.00
2018-01-17T05:01:49.109Z,0.00
2018-01-17T05:02:49.101Z,0.00
2018-01-17T05:03:49.085Z,0.00
2018-01-17T05:04:49.071Z,0.00
2018-01-17T05:05:49.055Z,0.00
2018-01-17T05:06:49.041Z,0.00
2018-01-17T05:07:49.032Z,0.00
2018-01-17T05:08:49.017Z,0.00
2018-01-17T05:09:49.001Z,0.00
2018-01-17T05:10:48.995Z,0.00
2018-01-17T05:11:48.974Z,0.00
2018-01-17T05:12:48.958Z,0.00
2018-01-17T05:13:48.954Z,0.00
2018-01-17T05:14:48.934Z,0.00
2018-01-17T05:15:48.928Z,0.00
2018-01-17T05:16:48.911Z,0.00
2018-01-17T05:17:48.898Z,0.00
2018-01-17T05:18:48.884Z,0.00
2018-01-17T05:19:48.868Z,0.00
2018-01-17T05:20:48.858Z,0.00
2018-01-17T05:21:48.844Z,0.00
2018-01-17T05:22:48.831Z,0.00
2018-01-17T05:23:48.819Z,0.00
2018-01-17T05:24:48.803Z,0.00
2018-01-17T05:25:48.792Z,0.00
2018-01-17T05:26:48.780Z,0.00
2018-01-17T05:27:48.767Z,0.00
2018-01-17T05:28:48.750Z,0.00
2018-01-17T05:29:48.743Z,0.00
2018-01-17T05:30:48.722Z,0.00
2018-01-17T05:31:48.711Z,0.00
2018-01-17T05:32:48.706Z,0.00
2018-01-17T05:33:48.682Z,0.00
2018-01-17T05:34:48.695Z,0.00
2018-01-17T05:35:48.655Z,0.00
2018-01-17T05:36:48.645Z,0.00
2018-01-17T05:37:48.636Z,0.00
2018-01-17T05:38:48.626Z,0.00
2018-01-17T05:39:48.602Z,0.00
2018-01-17T05:40:48.594Z,0.00
2018-01-17T05:41:48.582Z,0.00
2018-01-17T05:42:48.562Z,0.00
2018-01-17T05:43:48.557Z,0.00
2018-01-17T05:44:48.538Z,0.00
2018-01-17T05:45:48.528Z,0.00
2018-01-17T05:46:48.528Z,0.00
2018-01-17T05:47:48.497Z,0.00
2018-01-17T05:48:48.483Z,0.00
2018-01-17T05:49:48.473Z,0.00
2018-01-17T05:50:48.458Z,0.00
2018-01-17T05:51:48.459Z,0.00
2018-01-17T05:52:48.432Z,0.00
2018-01-17T05:53:48.418Z,0.00
2018-01-17T05:54:48.406Z,0.00
2018-01-17T05:55:48.391Z,0.00
2018-01-17T05:56:48.381Z,0.00
2018-01-17T05:57:48.365Z,0.00
2018-01-17T05:58:48.356Z,0.00
2018-01-17T05:59:48.350Z,0.00
2018-01-17T06:00:48.324Z,0.00
2018-01-17T06:01:48.333Z,0.00
2018-01-17T06:02:48.300Z,0.00
2018-01-17T06:03:48.289Z,0.00
2018-01-17T06:04:48.276Z,0.00
2018-01-17T06:05:48.262Z,0.00
2018-01-17T06:06:48.269Z,0.00
2018-01-17T06:07:48.248Z,0.00
2018-01-17T06:08:48.221Z,0.00
2018-01-17T06:09:48.221Z,0.00
2018-01-17T06:10:48.215Z,0.00
2018-01-17T06:11:48.253Z,0.00
2018-01-17T06:12:48.177Z,0.00
2018-01-17T06:13:48.154Z,0.00
2018-01-17T06:14:48.142Z,0.00
2018-01-17T06:15:48.149Z,0.00
2018-01-17T06:16:48.140Z,0.00
2018-01-17T06:17:48.158Z,0.00
2018-01-17T06:18:48.119Z,0.00
2018-01-17T06:19:48.071Z,0.00
2018-01-17T06:20:48.066Z,0.00
2018-01-17T06:21:48.062Z,0.00
2018-01-17T06:22:48.044Z,0.00
2018-01-17T06:23:48.024Z,0.00
2018-01-17T06:24:48.017Z,0.00
2018-01-17T06:25:47.992Z,0.00
2018-01-17T06:26:47.983Z,0.00
2018-01-17T06:27:47.969Z,0.00
2018-01-17T06:28:47.980Z,0.00
2018-01-17T06:29:47.938Z,0.00
2018-01-17T06:30:48.000Z,0.00
2018-01-17T06:31:47.919Z,0.00
2018-01-17T06:32:47.928Z,0.00
2018-01-17T06:33:47.919Z,0.00
2018-01-17T06:34:47.896Z,0.00
2018-01-17T06:35:47.918Z,0.00
2018-01-17T06:36:47.854Z,0.00
2018-01-17T06:37:47.830Z,0.00
2018-01-17T06:38:47.821Z,0.00
2018-01-17T06:39:47.805Z,0.00
2018-01-17T06:40:47.794Z,0.00
2018-01-17T06:41:47.788Z,0.00
2018-01-17T06:42:47.788Z,0.00
2018-01-17T06:43:47.797Z,0.00
2018-01-17T06:44:47.741Z,0.00
2018-01-17T06:45:47.724Z,0.00
2018-01-17T06:46:47.720Z,0.00
2018-01-17T06:47:47.709Z,0.00
2018-01-17T06:48:47.687Z,0.00
2018-01-17T06:49:47.700Z,0.00
2018-01-17T06:50:47.688Z,0.00
2018-01-17T06:51:47.653Z,0.00
2018-01-17T06:52:47.643Z,0.00
2018-01-17T06:53:47.620Z,4.00
2018-01-17T06:54:47.605Z,4.00
2018-01-17T06:55:47.595Z,0.00
2018-01-17T06:56:47.580Z,4.00
2018-01-17T06:57:47.572Z,4.00
2018-01-17T06:58:47.556Z,4.00
2018-01-17T06:59:47.541Z,4.00
2018-01-17T07:00:47.527Z,4.00
2018-01-17T07:01:47.539Z,8.00
2018-01-17T07:02:47.536Z,8.00
2018-01-17T07:03:47.486Z,8.00
2018-01-17T07:04:47.480Z,12.00
2018-01-17T07:05:47.460Z,16.00
2018-01-17T07:06:47.461Z,16.00
2018-01-17T07:07:47.440Z,20.00
2018-01-17T07:08:47.437Z,20.00
2018-01-17T07:09:47.414Z,24.00
2018-01-17T07:10:47.394Z,28.00
2018-01-17T07:11:47.383Z,36.00
2018-01-17T07:12:47.382Z,40.00
2018-01-17T07:13:47.408Z,44.00
2018-01-17T07:14:47.347Z,48.00
2018-01-17T07:15:47.329Z,56.00
2018-01-17T07:16:47.322Z,64.00
2018-01-17T07:17:47.307Z,68.00
2018-01-17T07:18:47.303Z,72.00
2018-01-17T07:19:47.279Z,76.00
2018-01-17T07:20:47.268Z,80.00
2018-01-17T07:21:47.256Z,96.00
2018-01-17T07:22:47.253Z,112.00
2018-01-17T07:23:47.250Z,128.00
2018-01-17T07:24:47.213Z,128.00
2018-01-17T07:25:47.211Z,152.00
2018-01-17T07:26:47.188Z,148.00
2018-01-17T07:27:47.172Z,160.00
2018-01-17T07:28:47.161Z,164.00
2018-01-17T07:29:47.168Z,168.00
2018-01-17T07:30:47.133Z,148.00
2018-01-17T07:31:47.126Z,148.00
2018-01-17T07:32:47.103Z,176.00
2018-01-17T07:33:47.093Z,168.00
2018-01-17T07:34:47.078Z,156.00
2018-01-17T07:35:47.064Z,188.00
2018-01-17T07:36:47.052Z,264.00
2018-01-17T07:37:47.042Z,296.00
2018-01-17T07:38:47.028Z,280.00
2018-01-17T07:39:47.015Z,340.00
2018-01-17T07:40:46.999Z,344.00
2018-01-17T07:41:46.990Z,352.00
2018-01-17T07:42:46.978Z,400.00
2018-01-17T07:43:46.964Z,424.00
2018-01-17T07:44:46.946Z,436.00
2018-01-17T07:45:46.953Z,448.00
2018-01-17T07:46:46.920Z,452.00
2018-01-17T07:47:46.906Z,444.00
2018-01-17T07:48:46.897Z,396.00
2018-01-17T07:49:46.883Z,440.00
2018-01-17T07:50:46.865Z,468.00
2018-01-17T07:51:46.856Z,432.00
2018-01-17T07:52:46.865Z,432.00
2018-01-17T07:53:46.890Z,412.00
2018-01-17T07:54:46.829Z,396.00
2018-01-17T07:55:46.826Z,388.00
2018-01-17T07:56:46.815Z,400.00
2018-01-17T07:57:46.776Z,312.00
2018-01-17T07:58:46.791Z,292.00
2018-01-17T07:59:46.779Z,292.00
2018-01-17T08:00:46.740Z,296.00
2018-01-17T08:01:46.758Z,336.00
2018-01-17T08:02:46.738Z,344.00
2018-01-17T08:03:46.701Z,412.00
2018-01-17T08:04:46.685Z,408.00
2018-01-17T08:05:46.671Z,400.00
2018-01-17T08:06:46.663Z,352.00
2018-01-17T08:07:46.645Z,276.00
2018-01-17T08:08:46.633Z,236.00
2018-01-17T08:09:46.619Z,176.00
2018-01-17T08:10:46.617Z,148.00
2018-01-17T08:11:46.590Z,140.00
2018-01-17T08:12:46.588Z,132.00
2018-01-17T08:13:46.568Z,128.00
2018-01-17T08:14:46.553Z,116.00
2018-01-17T08:15:46.539Z,116.00
2018-01-17T08:16:46.522Z,120.00
2018-01-17T08:17:46.515Z,124.00
2018-01-17T08:18:46.501Z,120.00
2018-01-17T08:19:46.487Z,120.00
2018-01-17T08:20:46.476Z,108.00
2018-01-17T08:21:46.460Z,116.00
2018-01-17T08:22:46.452Z,136.00
2018-01-17T08:23:46.435Z,148.00
2018-01-17T08:24:46.419Z,156.00
2018-01-17T08:25:46.405Z,172.00
2018-01-17T08:26:46.415Z,220.00
2018-01-17T08:27:46.383Z,252.00
2018-01-17T08:28:46.375Z,248.00
2018-01-17T08:29:46.355Z,236.00
2018-01-17T08:30:46.343Z,188.00
2018-01-17T08:31:46.329Z,156.00
2018-01-17T08:32:46.324Z,124.00
2018-01-17T08:33:46.310Z,128.00
2018-01-17T08:34:46.284Z,144.00
2018-01-17T08:35:46.274Z,172.00
2018-01-17T08:36:46.264Z,224.00
2018-01-17T08:37:46.262Z,224.00
2018-01-17T08:38:46.239Z,244.00
2018-01-17T08:39:46.224Z,268.00
2018-01-17T08:40:46.209Z,324.00
2018-01-17T08:41:46.199Z,352.00
2018-01-17T08:42:46.184Z,408.00
2018-01-17T08:43:46.173Z,440.00
2018-01-17T08:44:46.158Z,512.00
2018-01-17T08:45:46.149Z,568.00
2018-01-17T08:46:46.132Z,636.00
2018-01-17T08:47:46.117Z,648.00
2018-01-17T08:48:46.105Z,500.00
2018-01-17T08:49:46.095Z,492.00
2018-01-17T08:50:46.078Z,712.00
2018-01-17T08:51:46.066Z,1064.00
2018-01-17T08:52:46.061Z,1328.00
2018-01-17T08:53:46.041Z,1400.00
2018-01-17T08:54:46.028Z,1616.00
2018-01-17T08:55:46.012Z,1704.00
2018-01-17T08:56:46.003Z,1748.00
2018-01-17T08:57:45.986Z,2036.00
2018-01-17T08:58:45.984Z,2244.00
2018-01-17T08:59:45.962Z,2384.00
2018-01-17T09:00:45.946Z,2432.00
2018-01-17T09:01:45.934Z,2584.00
2018-01-17T09:02:45.919Z,2624.00
2018-01-17T09:03:45.906Z,2600.00
2018-01-17T09:04:45.901Z,3104.00
2018-01-17T09:05:45.876Z,2864.00
2018-01-17T09:06:45.867Z,3156.00
2018-01-17T09:07:45.853Z,3376.00
2018-01-17T09:08:45.847Z,3584.00
2018-01-17T09:09:45.835Z,3572.00
2018-01-17T09:10:45.812Z,3616.00
2018-01-17T09:11:45.803Z,3592.00
2018-01-17T09:12:45.811Z,3660.00
2018-01-17T09:13:45.780Z,3664.00
2018-01-17T09:14:48.596Z,3648.00
2018-01-17T09:15:48.135Z,3592.00
2018-01-17T09:16:45.818Z,3556.00
2018-01-17T09:17:45.725Z,3328.00
2018-01-17T09:18:45.714Z,3284.00
2018-01-17T09:19:45.702Z,3500.00
2018-01-17T09:20:45.687Z,3660.00
2018-01-17T09:21:45.671Z,3704.00
2018-01-17T09:22:45.660Z,3720.00
2018-01-17T09:23:45.644Z,3752.00
2018-01-17T09:24:45.638Z,3776.00
2018-01-17T09:25:45.626Z,3828.00
2018-01-17T09:26:45.609Z,3892.00
2018-01-17T09:27:45.598Z,4020.00
2018-01-17T09:28:45.628Z,4100.00
2018-01-17T09:29:45.571Z,4132.00
2018-01-17T09:30:45.557Z,4160.00
2018-01-17T09:31:45.582Z,4144.00
2018-01-17T09:32:45.533Z,4096.00
2018-01-17T09:33:45.518Z,4184.00
2018-01-17T09:34:45.504Z,4176.00
2018-01-17T09:35:45.500Z,4228.00
2018-01-17T09:36:45.476Z,3800.00
2018-01-17T09:37:45.470Z,3648.00
2018-01-17T09:38:45.459Z,3584.00
2018-01-17T09:39:45.444Z,3568.00
2018-01-17T09:40:45.430Z,4012.00
2018-01-17T09:41:45.440Z,7376.00
2018-01-17T09:42:45.406Z,7124.00
2018-01-17T09:43:45.389Z,8628.00
2018-01-17T09:44:45.380Z,8876.00
2018-01-17T09:45:45.373Z,8100.00
2018-01-17T09:46:45.353Z,9048.00
2018-01-17T09:47:45.340Z,8404.00
2018-01-17T09:48:45.327Z,8268.00
2018-01-17T09:49:45.316Z,6296.00
2018-01-17T09:50:45.308Z,9640.00
2018-01-17T09:51:45.290Z,12228.00
2018-01-17T09:52:45.280Z,13436.00
2018-01-17T09:53:45.269Z,18912.00
2018-01-17T09:54:45.255Z,10268.00
2018-01-17T09:55:45.248Z,14084.00
2018-01-17T09:56:45.233Z,8432.00
2018-01-17T09:57:45.225Z,7176.00
2018-01-17T09:58:45.237Z,8524.00
2018-01-17T09:59:45.201Z,11240.00
2018-01-17T10:00:45.189Z,8584.00
2018-01-17T10:01:45.177Z,20032.00
2018-01-17T10:02:45.168Z,8632.00
2018-01-17T10:03:45.159Z,12848.00
2018-01-17T10:04:45.141Z,10128.00
2018-01-17T10:05:45.139Z,8064.00
2018-01-17T10:06:45.126Z,10704.00
2018-01-17T10:07:45.110Z,14372.00
2018-01-17T10:08:45.101Z,8516.00
2018-01-17T10:09:45.094Z,10652.00
2018-01-17T10:10:45.081Z,8132.00
2018-01-17T10:11:45.072Z,5964.00
2018-01-17T10:12:45.058Z,7656.00
2018-01-17T10:13:45.049Z,8876.00
2018-01-17T10:14:45.039Z,5636.00
2018-01-17T10:15:45.035Z,5508.00
2018-01-17T10:16:45.015Z,3732.00
2018-01-17T10:17:45.059Z,3032.00
2018-01-17T10:18:45.000Z,3712.00
2018-01-17T10:19:44.985Z,4492.00
2018-01-17T10:20:44.984Z,5176.00
2018-01-17T10:21:44.966Z,4464.00
2018-01-17T10:22:44.953Z,6780.00
2018-01-17T10:23:44.974Z,7592.00
2018-01-17T10:24:44.932Z,8924.00
2018-01-17T10:25:44.920Z,7236.00
2018-01-17T10:26:44.917Z,5348.00
2018-01-17T10:27:44.905Z,17024.00
2018-01-17T10:28:44.887Z,7340.00
2018-01-17T10:29:44.874Z,8620.00
2018-01-17T10:30:44.866Z,5816.00
2018-01-17T10:31:44.871Z,5732.00
2018-01-17T10:32:44.844Z,7556.00
2018-01-17T10:33:44.829Z,16256.00
2018-01-17T10:34:44.820Z,15296.00
2018-01-17T10:35:44.813Z,7736.00
2018-01-17T10:36:44.802Z,23488.00
2018-01-17T10:37:44.784Z,12240.00
2018-01-17T10:38:44.774Z,11432.00
2018-01-17T10:39:44.764Z,16544.00
2018-01-17T10:40:44.766Z,13748.00
2018-01-17T10:41:44.741Z,19936.00
2018-01-17T10:42:44.769Z,8520.00
2018-01-17T10:43:44.725Z,24000.00
2018-01-17T10:44:44.710Z,22560.00
2018-01-17T10:45:44.700Z,9580.00
2018-01-17T10:46:44.695Z,9236.00
2018-01-17T10:47:44.690Z,9224.00
2018-01-17T10:48:44.670Z,11476.00
2018-01-17T10:49:44.668Z,13060.00
2018-01-17T10:50:44.650Z,15156.00
2018-01-17T10:51:44.638Z,14260.00
2018-01-17T10:52:44.632Z,16576.00
2018-01-17T10:53:44.620Z,24256.00
2018-01-17T10:54:44.613Z,19648.00
2018-01-17T10:55:44.611Z,13504.00
2018-01-17T10:56:44.594Z,10652.00
2018-01-17T10:57:44.579Z,18720.00
2018-01-17T10:58:44.570Z,15372.00
2018-01-17T10:59:44.563Z,8312.00
2018-01-17T11:00:44.556Z,8732.00
2018-01-17T11:01:44.539Z,7728.00
2018-01-17T11:02:44.536Z,7212.00
2018-01-17T11:03:44.529Z,7604.00
2018-01-17T11:04:44.523Z,9676.00
2018-01-17T11:05:44.503Z,10940.00
2018-01-17T11:06:44.490Z,11672.00
2018-01-17T11:07:44.480Z,8876.00
2018-01-17T11:08:44.478Z,4712.00
2018-01-17T11:09:44.469Z,5288.00
2018-01-17T11:10:44.451Z,3916.00
2018-01-17T11:11:44.447Z,3700.00
2018-01-17T11:12:44.435Z,4520.00
2018-01-17T11:13:44.422Z,4880.00
2018-01-17T11:14:44.409Z,4584.00
2018-01-17T11:15:44.404Z,3508.00
2018-01-17T11:16:44.382Z,3676.00
2018-01-17T11:17:44.373Z,3620.00
2018-01-17T11:18:44.369Z,3524.00
2018-01-17T11:19:44.361Z,3704.00
2018-01-17T11:20:44.346Z,4028.00
2018-01-17T11:21:44.336Z,3148.00
2018-01-17T11:22:44.345Z,2848.00
2018-01-17T11:23:44.354Z,2180.00
2018-01-17T11:24:44.321Z,1884.00
2018-01-17T11:25:44.296Z,2056.00
2018-01-17T11:26:44.283Z,2040.00
2018-01-17T11:27:44.266Z,2148.00
2018-01-17T11:28:44.269Z,2628.00
2018-01-17T11:29:44.251Z,3964.00
2018-01-17T11:30:44.237Z,5752.00
2018-01-17T11:31:44.235Z,6492.00
2018-01-17T11:32:44.240Z,6704.00
2018-01-17T11:33:44.201Z,5768.00
2018-01-17T11:34:44.187Z,5020.00
2018-01-17T11:35:44.180Z,4536.00
2018-01-17T11:36:44.158Z,2772.00
2018-01-17T11:37:44.153Z,2108.00
2018-01-17T11:38:44.146Z,3136.00
2018-01-17T11:39:44.132Z,3744.00
2018-01-17T11:40:44.117Z,3648.00
2018-01-17T11:41:44.107Z,3536.00
2018-01-17T11:42:44.096Z,4828.00
2018-01-17T11:43:44.087Z,3784.00
2018-01-17T11:44:44.071Z,5620.00
2018-01-17T11:45:44.074Z,5404.00
2018-01-17T11:46:44.050Z,6020.00
2018-01-17T11:47:44.034Z,6160.00
2018-01-17T11:48:44.024Z,6452.00
2018-01-17T11:49:44.013Z,6100.00
2018-01-17T11:50:44.004Z,5224.00
2018-01-17T11:51:43.988Z,5600.00
2018-01-17T11:52:43.983Z,4684.00
2018-01-17T11:53:43.966Z,3412.00
2018-01-17T11:54:43.955Z,3856.00
2018-01-17T11:55:43.951Z,3480.00
2018-01-17T11:56:43.939Z,3952.00
2018-01-17T11:57:43.915Z,4060.00
2018-01-17T11:58:43.909Z,3648.00
2018-01-17T11:59:43.900Z,4376.00
2018-01-17T12:00:43.884Z,3204.00
2018-01-17T12:01:43.873Z,2764.00
2018-01-17T12:02:43.890Z,2472.00
2018-01-17T12:03:43.845Z,3032.00
2018-01-17T12:04:43.835Z,3928.00
2018-01-17T12:05:43.830Z,3440.00
2018-01-17T12:06:43.812Z,2976.00
2018-01-17T12:07:43.796Z,2640.00
2018-01-17T12:08:43.788Z,2536.00
2018-01-17T12:09:43.780Z,2836.00
2018-01-17T12:10:43.767Z,2464.00
2018-01-17T12:11:43.751Z,2260.00
2018-01-17T12:12:43.741Z,1936.00
2018-01-17T12:13:43.725Z,1804.00
2018-01-17T12:14:43.718Z,1560.00
2018-01-17T12:15:43.708Z,1308.00
2018-01-17T12:16:43.694Z,1392.00
2018-01-17T12:17:43.706Z,1396.00
2018-01-17T12:18:43.669Z,1208.00
2018-01-17T12:19:43.655Z,1024.00
2018-01-17T12:20:43.646Z,884.00
2018-01-17T12:21:43.633Z,756.00
2018-01-17T12:22:43.629Z,580.00
2018-01-17T12:23:43.612Z,516.00
2018-01-17T12:24:43.602Z,552.00
2018-01-17T12:25:43.593Z,568.00
2018-01-17T12:26:43.577Z,648.00
2018-01-17T12:27:43.587Z,692.00
2018-01-17T12:28:43.551Z,696.00
2018-01-17T12:29:43.537Z,760.00
2018-01-17T12:30:43.525Z,704.00
2018-01-17T12:31:43.513Z,792.00
2018-01-17T12:32:43.501Z,716.00
2018-01-17T12:33:43.500Z,652.00
2018-01-17T12:34:43.480Z,588.00
2018-01-17T12:35:43.467Z,588.00
2018-01-17T12:36:43.460Z,716.00
2018-01-17T12:37:43.442Z,876.00
2018-01-17T12:38:43.429Z,956.00
2018-01-17T12:39:43.415Z,1052.00
2018-01-17T12:40:43.410Z,1252.00
2018-01-17T12:41:43.397Z,1312.00
2018-01-17T12:42:43.375Z,1592.00
2018-01-17T12:43:43.367Z,2192.00
2018-01-17T12:44:43.352Z,1896.00
2018-01-17T12:45:43.343Z,1664.00
2018-01-17T12:46:43.326Z,1796.00
2018-01-17T12:47:43.317Z,1512.00